sensor_id;sensor_type;location;lat;lon;timestamp;P1;durP1;ratioP1;P2;durP2;ratioP2
72127;SDS011;60000;51.030;7.024;2022-09-13T00:01:25;5.93;;;2.50;;
72127;SDS011;60000;51.030;7.024;2022-09-13T00:03:50;6.28;;;2.75;;
72127;SDS011;60000;51.030;7.024;2022-09-13T00:06:17;5.67;;;2.30;;
72127;SDS011;60000;51.030;7.024;2022-09-13T00:08:43;6.13;;;2.50;;
72127;SDS011;60000;51.030;7.024;2022-09-13T00:11:16;4.80;;;2.10;;
72127;SDS011;60000;51.030;7.024;2022-09-13T00:13:44;5.57;;;2.15;;
72127;SDS011;60000;51.030;7.024;2022-09-13T00:16:11;6.28;;;2.20;;
72127;SDS011;60000;51.030;7.024;2022-09-13T00:18:38;5.57;;;2.20;;
72127;SDS011;60000;51.030;7.024;2022-09-13T00:21:08;5.72;;;2.55;;
72127;SDS011;60000;51.030;7.024;2022-09-13T00:23:45;6.03;;;2.53;;
72127;SDS011;60000;51.030;7.024;2022-09-13T00:26:13;6.07;;;2.60;;
72127;SDS011;60000;51.030;7.024;2022-09-13T00:28:42;8.18;;;2.60;;
72127;SDS011;60000;51.030;7.024;2022-09-13T00:31:09;5.53;;;2.40;;
72127;SDS011;60000;51.030;7.024;2022-09-13T00:33:35;8.25;;;2.65;;
72127;SDS011;60000;51.030;7.024;2022-09-13T00:36:04;6.83;;;2.37;;
72127;SDS011;60000;51.030;7.024;2022-09-13T00:38:30;6.15;;;2.47;;
72127;SDS011;60000;51.030;7.024;2022-09-13T00:40:56;5.20;;;2.27;;
72127;SDS011;60000;51.030;7.024;2022-09-13T00:43:39;5.30;;;2.50;;
72127;SDS011;60000;51.030;7.024;2022-09-13T00:46:16;5.15;;;2.22;;
72127;SDS011;60000;51.030;7.024;2022-09-13T00:48:48;5.53;;;2.40;;
72127;SDS011;60000;51.030;7.024;2022-09-13T00:51:16;5.13;;;1.90;;
72127;SDS011;60000;51.030;7.024;2022-09-13T00:53:43;4.90;;;2.00;;
72127;SDS011;60000;51.030;7.024;2022-09-13T00:56:14;5.28;;;2.40;;
72127;SDS011;60000;51.030;7.024;2022-09-13T00:58:51;6.32;;;2.70;;
72127;SDS011;60000;51.030;7.024;2022-09-13T01:01:24;5.73;;;2.40;;
72127;SDS011;60000;51.030;7.024;2022-09-13T01:03:56;4.93;;;2.05;;
72127;SDS011;60000;51.030;7.024;2022-09-13T01:06:22;5.50;;;2.30;;
72127;SDS011;60000;51.030;7.024;2022-09-13T01:08:53;5.10;;;2.25;;
72127;SDS011;60000;51.030;7.024;2022-09-13T01:11:40;5.40;;;2.30;;
72127;SDS011;60000;51.030;7.024;2022-09-13T01:14:19;5.72;;;2.30;;
72127;SDS011;60000;51.030;7.024;2022-09-13T01:16:47;5.18;;;2.35;;
72127;SDS011;60000;51.030;7.024;2022-09-13T01:19:13;5.60;;;2.60;;
72127;SDS011;60000;51.030;7.024;2022-09-13T01:27:13;6.18;;;2.72;;
72127;SDS011;60000;51.030;7.024;2022-09-13T01:32:40;5.72;;;2.25;;
72127;SDS011;60000;51.030;7.024;2022-09-13T01:41:11;5.40;;;2.15;;
72127;SDS011;60000;51.030;7.024;2022-09-13T01:47:01;5.55;;;2.40;;
72127;SDS011;60000;51.030;7.024;2022-09-13T01:49:58;6.60;;;2.47;;
72127;SDS011;60000;51.030;7.024;2022-09-13T01:55:07;8.18;;;2.90;;
72127;SDS011;60000;51.030;7.024;2022-09-13T01:57:42;9.18;;;2.50;;
72127;SDS011;60000;51.030;7.024;2022-09-13T02:00:21;7.95;;;2.70;;
72127;SDS011;60000;51.030;7.024;2022-09-13T02:02:57;5.03;;;2.30;;
72127;SDS011;60000;51.030;7.024;2022-09-13T02:05:54;6.32;;;2.63;;
72127;SDS011;60000;51.030;7.024;2022-09-13T02:08:24;6.73;;;2.80;;
72127;SDS011;60000;51.030;7.024;2022-09-13T02:11:03;7.55;;;2.50;;
72127;SDS011;60000;51.030;7.024;2022-09-13T02:13:38;5.90;;;2.70;;
72127;SDS011;60000;51.030;7.024;2022-09-13T02:16:12;8.13;;;2.63;;
72127;SDS011;60000;51.030;7.024;2022-09-13T02:18:42;6.60;;;2.75;;
72127;SDS011;60000;51.030;7.024;2022-09-13T02:21:20;5.97;;;2.50;;
72127;SDS011;60000;51.030;7.024;2022-09-13T02:23:50;5.88;;;2.42;;
72127;SDS011;60000;51.030;7.024;2022-09-13T02:26:20;5.90;;;2.60;;
72127;SDS011;60000;51.030;7.024;2022-09-13T02:28:49;6.63;;;2.65;;
72127;SDS011;60000;51.030;7.024;2022-09-13T02:31:18;8.82;;;2.58;;
72127;SDS011;60000;51.030;7.024;2022-09-13T02:34:07;6.03;;;2.57;;
72127;SDS011;60000;51.030;7.024;2022-09-13T02:36:42;6.47;;;2.25;;
72127;SDS011;60000;51.030;7.024;2022-09-13T02:39:13;5.90;;;2.45;;
72127;SDS011;60000;51.030;7.024;2022-09-13T02:44:34;5.50;;;2.30;;
72127;SDS011;60000;51.030;7.024;2022-09-13T02:47:13;7.50;;;2.50;;
72127;SDS011;60000;51.030;7.024;2022-09-13T02:50:22;5.95;;;2.45;;
72127;SDS011;60000;51.030;7.024;2022-09-13T02:56:09;4.65;;;1.98;;
72127;SDS011;60000;51.030;7.024;2022-09-13T02:58:56;4.63;;;1.90;;
72127;SDS011;60000;51.030;7.024;2022-09-13T03:01:31;5.07;;;2.03;;
72127;SDS011;60000;51.030;7.024;2022-09-13T03:03:57;5.07;;;2.15;;
72127;SDS011;60000;51.030;7.024;2022-09-13T03:06:26;5.43;;;1.87;;
72127;SDS011;60000;51.030;7.024;2022-09-13T03:08:57;5.97;;;2.45;;
72127;SDS011;60000;51.030;7.024;2022-09-13T03:25:38;4.68;;;1.98;;
72127;SDS011;60000;51.030;7.024;2022-09-13T03:28:28;6.57;;;2.50;;
72127;SDS011;60000;51.030;7.024;2022-09-13T03:31:12;5.32;;;2.15;;
72127;SDS011;60000;51.030;7.024;2022-09-13T03:33:47;5.03;;;2.03;;
72127;SDS011;60000;51.030;7.024;2022-09-13T03:36:24;6.40;;;2.05;;
72127;SDS011;60000;51.030;7.024;2022-09-13T03:42:07;5.40;;;2.30;;
72127;SDS011;60000;51.030;7.024;2022-09-13T03:44:38;5.78;;;2.40;;
72127;SDS011;60000;51.030;7.024;2022-09-13T03:47:08;5.83;;;2.60;;
72127;SDS011;60000;51.030;7.024;2022-09-13T03:49:34;5.72;;;2.63;;
72127;SDS011;60000;51.030;7.024;2022-09-13T03:52:03;5.30;;;2.10;;
72127;SDS011;60000;51.030;7.024;2022-09-13T03:54:29;4.30;;;1.90;;
72127;SDS011;60000;51.030;7.024;2022-09-13T03:57:16;5.90;;;2.27;;
72127;SDS011;60000;51.030;7.024;2022-09-13T03:59:45;5.28;;;2.22;;
72127;SDS011;60000;51.030;7.024;2022-09-13T04:02:12;5.30;;;2.30;;
72127;SDS011;60000;51.030;7.024;2022-09-13T04:04:39;4.80;;;2.00;;
72127;SDS011;60000;51.030;7.024;2022-09-13T04:07:06;5.72;;;2.30;;
72127;SDS011;60000;51.030;7.024;2022-09-13T04:09:33;5.60;;;2.20;;
72127;SDS011;60000;51.030;7.024;2022-09-13T04:11:58;6.30;;;2.30;;
72127;SDS011;60000;51.030;7.024;2022-09-13T04:14:24;10.00;;;2.50;;
72127;SDS011;60000;51.030;7.024;2022-09-13T04:16:54;5.70;;;2.30;;
72127;SDS011;60000;51.030;7.024;2022-09-13T04:19:21;4.72;;;1.90;;
72127;SDS011;60000;51.030;7.024;2022-09-13T04:21:48;5.32;;;2.28;;
72127;SDS011;60000;51.030;7.024;2022-09-13T04:24:14;5.00;;;2.00;;
72127;SDS011;60000;51.030;7.024;2022-09-13T04:26:40;6.72;;;2.47;;
72127;SDS011;60000;51.030;7.024;2022-09-13T04:29:05;5.57;;;2.30;;
72127;SDS011;60000;51.030;7.024;2022-09-13T04:31:30;6.80;;;1.97;;
72127;SDS011;60000;51.030;7.024;2022-09-13T04:33:56;6.33;;;2.30;;
72127;SDS011;60000;51.030;7.024;2022-09-13T04:36:24;5.32;;;2.00;;
72127;SDS011;60000;51.030;7.024;2022-09-13T04:38:49;5.50;;;2.10;;
72127;SDS011;60000;51.030;7.024;2022-09-13T04:41:14;5.47;;;2.03;;
72127;SDS011;60000;51.030;7.024;2022-09-13T04:43:40;6.40;;;2.25;;
72127;SDS011;60000;51.030;7.024;2022-09-13T04:46:06;5.13;;;2.20;;
72127;SDS011;60000;51.030;7.024;2022-09-13T04:48:31;5.53;;;2.50;;
72127;SDS011;60000;51.030;7.024;2022-09-13T04:51:00;5.60;;;2.40;;
72127;SDS011;60000;51.030;7.024;2022-09-13T04:53:26;6.20;;;2.60;;
72127;SDS011;60000;51.030;7.024;2022-09-13T04:55:52;5.57;;;2.40;;
72127;SDS011;60000;51.030;7.024;2022-09-13T04:58:23;5.45;;;2.42;;
72127;SDS011;60000;51.030;7.024;2022-09-13T05:00:49;7.30;;;2.90;;
72127;SDS011;60000;51.030;7.024;2022-09-13T05:03:19;7.43;;;2.38;;
72127;SDS011;60000;51.030;7.024;2022-09-13T05:05:45;6.10;;;2.60;;
72127;SDS011;60000;51.030;7.024;2022-09-13T05:08:10;7.67;;;2.70;;
72127;SDS011;60000;51.030;7.024;2022-09-13T05:10:35;5.23;;;2.10;;
72127;SDS011;60000;51.030;7.024;2022-09-13T05:13:00;5.53;;;2.27;;
72127;SDS011;60000;51.030;7.024;2022-09-13T05:15:26;4.77;;;2.10;;
72127;SDS011;60000;51.030;7.024;2022-09-13T05:17:51;6.13;;;2.53;;
72127;SDS011;60000;51.030;7.024;2022-09-13T05:20:16;6.55;;;2.17;;
72127;SDS011;60000;51.030;7.024;2022-09-13T05:22:42;8.20;;;2.50;;
72127;SDS011;60000;51.030;7.024;2022-09-13T05:25:07;5.20;;;2.60;;
72127;SDS011;60000;51.030;7.024;2022-09-13T05:27:33;4.93;;;2.03;;
72127;SDS011;60000;51.030;7.024;2022-09-13T05:29:58;9.00;;;2.58;;
72127;SDS011;60000;51.030;7.024;2022-09-13T05:32:23;6.03;;;2.87;;
72127;SDS011;60000;51.030;7.024;2022-09-13T05:34:49;5.33;;;2.50;;
72127;SDS011;60000;51.030;7.024;2022-09-13T05:37:14;8.30;;;2.97;;
72127;SDS011;60000;51.030;7.024;2022-09-13T05:39:39;5.90;;;2.30;;
72127;SDS011;60000;51.030;7.024;2022-09-13T05:42:05;6.13;;;2.93;;
72127;SDS011;60000;51.030;7.024;2022-09-13T05:44:30;6.37;;;2.70;;
72127;SDS011;60000;51.030;7.024;2022-09-13T05:46:55;8.23;;;2.70;;
72127;SDS011;60000;51.030;7.024;2022-09-13T05:49:21;5.78;;;2.60;;
72127;SDS011;60000;51.030;7.024;2022-09-13T05:51:47;5.93;;;2.43;;
72127;SDS011;60000;51.030;7.024;2022-09-13T05:54:12;7.77;;;2.60;;
72127;SDS011;60000;51.030;7.024;2022-09-13T05:56:38;5.88;;;2.58;;
72127;SDS011;60000;51.030;7.024;2022-09-13T05:59:03;5.80;;;2.37;;
72127;SDS011;60000;51.030;7.024;2022-09-13T06:01:29;8.67;;;2.37;;
72127;SDS011;60000;51.030;7.024;2022-09-13T06:03:56;5.95;;;2.65;;
72127;SDS011;60000;51.030;7.024;2022-09-13T06:06:22;7.57;;;2.57;;
72127;SDS011;60000;51.030;7.024;2022-09-13T06:08:50;6.30;;;2.58;;
72127;SDS011;60000;51.030;7.024;2022-09-13T06:11:17;7.13;;;2.60;;
72127;SDS011;60000;51.030;7.024;2022-09-13T06:13:42;5.30;;;2.30;;
72127;SDS011;60000;51.030;7.024;2022-09-13T06:16:08;5.80;;;2.40;;
72127;SDS011;60000;51.030;7.024;2022-09-13T06:18:35;7.38;;;2.40;;
72127;SDS011;60000;51.030;7.024;2022-09-13T06:21:05;6.27;;;2.70;;
72127;SDS011;60000;51.030;7.024;2022-09-13T06:23:32;5.30;;;2.40;;
72127;SDS011;60000;51.030;7.024;2022-09-13T06:26:08;5.60;;;2.40;;
72127;SDS011;60000;51.030;7.024;2022-09-13T06:28:35;6.27;;;2.53;;
72127;SDS011;60000;51.030;7.024;2022-09-13T06:33:31;5.32;;;2.30;;
72127;SDS011;60000;51.030;7.024;2022-09-13T06:36:01;6.22;;;2.45;;
72127;SDS011;60000;51.030;7.024;2022-09-13T06:38:27;5.70;;;2.35;;
72127;SDS011;60000;51.030;7.024;2022-09-13T06:43:50;5.50;;;2.20;;
72127;SDS011;60000;51.030;7.024;2022-09-13T06:46:17;6.90;;;2.22;;
72127;SDS011;60000;51.030;7.024;2022-09-13T06:48:44;6.03;;;2.53;;
72127;SDS011;60000;51.030;7.024;2022-09-13T06:51:11;9.97;;;2.50;;
72127;SDS011;60000;51.030;7.024;2022-09-13T06:53:38;6.28;;;2.13;;
72127;SDS011;60000;51.030;7.024;2022-09-13T06:56:06;5.22;;;1.90;;
72127;SDS011;60000;51.030;7.024;2022-09-13T06:58:36;6.40;;;1.88;;
72127;SDS011;60000;51.030;7.024;2022-09-13T07:03:42;7.95;;;2.30;;
72127;SDS011;60000;51.030;7.024;2022-09-13T07:06:13;5.50;;;2.15;;
72127;SDS011;60000;51.030;7.024;2022-09-13T07:08:40;6.88;;;2.20;;
72127;SDS011;60000;51.030;7.024;2022-09-13T07:11:07;5.38;;;2.00;;
72127;SDS011;60000;51.030;7.024;2022-09-13T07:13:33;6.90;;;2.37;;
72127;SDS011;60000;51.030;7.024;2022-09-13T07:16:02;6.47;;;2.42;;
72127;SDS011;60000;51.030;7.024;2022-09-13T07:18:29;5.35;;;2.10;;
72127;SDS011;60000;51.030;7.024;2022-09-13T07:21:02;5.67;;;2.43;;
72127;SDS011;60000;51.030;7.024;2022-09-13T07:23:31;7.53;;;2.20;;
72127;SDS011;60000;51.030;7.024;2022-09-13T07:25:57;5.32;;;2.30;;
72127;SDS011;60000;51.030;7.024;2022-09-13T07:28:30;4.93;;;2.03;;
72127;SDS011;60000;51.030;7.024;2022-09-13T07:31:03;4.63;;;2.00;;
72127;SDS011;60000;51.030;7.024;2022-09-13T07:33:32;5.30;;;2.20;;
72127;SDS011;60000;51.030;7.024;2022-09-13T07:35:58;8.03;;;2.30;;
72127;SDS011;60000;51.030;7.024;2022-09-13T07:38:25;4.60;;;2.17;;
72127;SDS011;60000;51.030;7.024;2022-09-13T07:40:54;5.13;;;2.10;;
72127;SDS011;60000;51.030;7.024;2022-09-13T07:43:21;5.57;;;2.00;;
72127;SDS011;60000;51.030;7.024;2022-09-13T07:45:47;4.93;;;1.95;;
72127;SDS011;60000;51.030;7.024;2022-09-13T07:48:13;5.30;;;2.10;;
72127;SDS011;60000;51.030;7.024;2022-09-13T07:50:38;7.20;;;2.00;;
72127;SDS011;60000;51.030;7.024;2022-09-13T07:53:04;4.55;;;1.92;;
72127;SDS011;60000;51.030;7.024;2022-09-13T07:55:30;5.30;;;1.90;;
72127;SDS011;60000;51.030;7.024;2022-09-13T07:57:55;6.77;;;1.90;;
72127;SDS011;60000;51.030;7.024;2022-09-13T08:00:21;4.60;;;2.00;;
72127;SDS011;60000;51.030;7.024;2022-09-13T08:02:49;5.10;;;2.20;;
72127;SDS011;60000;51.030;7.024;2022-09-13T08:05:14;4.33;;;1.80;;
72127;SDS011;60000;51.030;7.024;2022-09-13T08:07:39;5.53;;;2.53;;
72127;SDS011;60000;51.030;7.024;2022-09-13T08:10:05;5.97;;;2.00;;
72127;SDS011;60000;51.030;7.024;2022-09-13T08:12:30;5.43;;;2.20;;
72127;SDS011;60000;51.030;7.024;2022-09-13T08:14:55;5.90;;;1.83;;
72127;SDS011;60000;51.030;7.024;2022-09-13T08:17:21;6.57;;;2.30;;
72127;SDS011;60000;51.030;7.024;2022-09-13T08:19:46;4.90;;;1.93;;
72127;SDS011;60000;51.030;7.024;2022-09-13T08:22:11;4.70;;;1.80;;
72127;SDS011;60000;51.030;7.024;2022-09-13T08:24:37;5.20;;;1.93;;
72127;SDS011;60000;51.030;7.024;2022-09-13T08:27:02;5.43;;;2.03;;
72127;SDS011;60000;51.030;7.024;2022-09-13T08:29:27;6.83;;;2.27;;
72127;SDS011;60000;51.030;7.024;2022-09-13T08:31:53;5.30;;;2.23;;
72127;SDS011;60000;51.030;7.024;2022-09-13T08:34:18;5.82;;;1.77;;
72127;SDS011;60000;51.030;7.024;2022-09-13T08:36:45;7.83;;;2.07;;
72127;SDS011;60000;51.030;7.024;2022-09-13T08:39:10;5.28;;;2.10;;
72127;SDS011;60000;51.030;7.024;2022-09-13T08:46:58;7.25;;;2.00;;
72127;SDS011;60000;51.030;7.024;2022-09-13T08:49:47;8.57;;;1.90;;
72127;SDS011;60000;51.030;7.024;2022-09-13T08:52:34;7.00;;;1.85;;
72127;SDS011;60000;51.030;7.024;2022-09-13T08:55:24;6.22;;;2.08;;
72127;SDS011;60000;51.030;7.024;2022-09-13T09:00:47;5.43;;;1.85;;
72127;SDS011;60000;51.030;7.024;2022-09-13T09:03:27;5.40;;;2.00;;
72127;SDS011;60000;51.030;7.024;2022-09-13T09:06:06;5.90;;;1.95;;
72127;SDS011;60000;51.030;7.024;2022-09-13T09:11:11;4.47;;;1.87;;
72127;SDS011;60000;51.030;7.024;2022-09-13T09:13:49;4.68;;;1.73;;
72127;SDS011;60000;51.030;7.024;2022-09-13T09:17:04;6.10;;;2.00;;
72127;SDS011;60000;51.030;7.024;2022-09-13T09:19:14;6.63;;;1.98;;
72127;SDS011;60000;51.030;7.024;2022-09-13T09:21:44;4.97;;;1.90;;
72127;SDS011;60000;51.030;7.024;2022-09-13T09:24:19;7.65;;;2.00;;
72127;SDS011;60000;51.030;7.024;2022-09-13T09:26:47;6.22;;;1.95;;
72127;SDS011;60000;51.030;7.024;2022-09-13T09:29:17;6.00;;;2.40;;
72127;SDS011;60000;51.030;7.024;2022-09-13T09:37:19;4.87;;;1.80;;
72127;SDS011;60000;51.030;7.024;2022-09-13T09:39:47;6.03;;;2.33;;
72127;SDS011;60000;51.030;7.024;2022-09-13T09:42:13;7.97;;;2.30;;
72127;SDS011;60000;51.030;7.024;2022-09-13T09:44:49;5.45;;;2.05;;
72127;SDS011;60000;51.030;7.024;2022-09-13T09:47:27;6.45;;;2.30;;
72127;SDS011;60000;51.030;7.024;2022-09-13T09:50:02;8.10;;;2.20;;
72127;SDS011;60000;51.030;7.024;2022-09-13T09:55:36;6.05;;;2.35;;
72127;SDS011;60000;51.030;7.024;2022-09-13T09:58:09;5.47;;;2.10;;
72127;SDS011;60000;51.030;7.024;2022-09-13T10:00:37;6.85;;;2.17;;
72127;SDS011;60000;51.030;7.024;2022-09-13T10:03:16;5.60;;;2.20;;
72127;SDS011;60000;51.030;7.024;2022-09-13T10:05:43;5.80;;;2.03;;
72127;SDS011;60000;51.030;7.024;2022-09-13T10:08:25;7.18;;;2.50;;
72127;SDS011;60000;51.030;7.024;2022-09-13T10:10:55;6.25;;;1.88;;
72127;SDS011;60000;51.030;7.024;2022-09-13T10:13:24;12.13;;;2.28;;
72127;SDS011;60000;51.030;7.024;2022-09-13T10:18:23;7.97;;;2.03;;
72127;SDS011;60000;51.030;7.024;2022-09-13T10:20:58;9.27;;;3.00;;
72127;SDS011;60000;51.030;7.024;2022-09-13T10:23:27;8.27;;;2.25;;
72127;SDS011;60000;51.030;7.024;2022-09-13T10:26:03;8.18;;;2.88;;
72127;SDS011;60000;51.030;7.024;2022-09-13T10:28:33;8.37;;;2.90;;
72127;SDS011;60000;51.030;7.024;2022-09-13T10:31:05;6.32;;;2.70;;
72127;SDS011;60000;51.030;7.024;2022-09-13T10:33:36;7.90;;;2.83;;
72127;SDS011;60000;51.030;7.024;2022-09-13T10:36:11;9.10;;;2.60;;
72127;SDS011;60000;51.030;7.024;2022-09-13T10:39:10;5.35;;;2.22;;
72127;SDS011;60000;51.030;7.024;2022-09-13T10:41:37;5.33;;;1.87;;
72127;SDS011;60000;51.030;7.024;2022-09-13T10:44:06;5.88;;;2.35;;
72127;SDS011;60000;51.030;7.024;2022-09-13T10:46:51;6.40;;;2.20;;
72127;SDS011;60000;51.030;7.024;2022-09-13T10:57:51;6.72;;;2.30;;
72127;SDS011;60000;51.030;7.024;2022-09-13T11:05:38;7.05;;;1.95;;
72127;SDS011;60000;51.030;7.024;2022-09-13T11:11:10;5.93;;;1.80;;
72127;SDS011;60000;51.030;7.024;2022-09-13T11:25:38;4.95;;;1.40;;
72127;SDS011;60000;51.030;7.024;2022-09-13T11:28:19;5.28;;;1.65;;
72127;SDS011;60000;51.030;7.024;2022-09-13T11:33:57;3.95;;;1.38;;
72127;SDS011;60000;51.030;7.024;2022-09-13T11:36:59;3.77;;;1.40;;
72127;SDS011;60000;51.030;7.024;2022-09-13T11:45:25;4.20;;;1.50;;
72127;SDS011;60000;51.030;7.024;2022-09-13T11:48:05;4.63;;;1.40;;
72127;SDS011;60000;51.030;7.024;2022-09-13T11:53:14;6.55;;;1.63;;
72127;SDS011;60000;51.030;7.024;2022-09-13T11:56:10;3.75;;;1.50;;
72127;SDS011;60000;51.030;7.024;2022-09-13T11:58:45;3.65;;;1.20;;
72127;SDS011;60000;51.030;7.024;2022-09-13T12:01:20;3.70;;;1.30;;
72127;SDS011;60000;51.030;7.024;2022-09-13T12:06:21;3.97;;;1.60;;
72127;SDS011;60000;51.030;7.024;2022-09-13T12:08:59;3.43;;;1.40;;
72127;SDS011;60000;51.030;7.024;2022-09-13T12:11:35;4.47;;;1.45;;
72127;SDS011;60000;51.030;7.024;2022-09-13T12:14:17;3.85;;;1.50;;
72127;SDS011;60000;51.030;7.024;2022-09-13T12:16:48;4.45;;;1.70;;
72127;SDS011;60000;51.030;7.024;2022-09-13T12:19:23;4.03;;;1.33;;
72127;SDS011;60000;51.030;7.024;2022-09-13T12:21:52;4.60;;;1.50;;
72127;SDS011;60000;51.030;7.024;2022-09-13T12:27:04;3.67;;;1.27;;
72127;SDS011;60000;51.030;7.024;2022-09-13T12:29:36;9.32;;;1.40;;
72127;SDS011;60000;51.030;7.024;2022-09-13T12:32:08;4.97;;;1.40;;
72127;SDS011;60000;51.030;7.024;2022-09-13T12:34:44;6.57;;;1.90;;
72127;SDS011;60000;51.030;7.024;2022-09-13T12:37:25;4.85;;;1.50;;
72127;SDS011;60000;51.030;7.024;2022-09-13T12:40:03;5.57;;;1.63;;
72127;SDS011;60000;51.030;7.024;2022-09-13T12:42:56;9.23;;;1.70;;
72127;SDS011;60000;51.030;7.024;2022-09-13T12:53:24;4.13;;;1.50;;
72127;SDS011;60000;51.030;7.024;2022-09-13T13:01:48;5.37;;;1.80;;
72127;SDS011;60000;51.030;7.024;2022-09-13T13:04:24;6.07;;;1.88;;
72127;SDS011;60000;51.030;7.024;2022-09-13T13:06:53;6.80;;;1.83;;
72127;SDS011;60000;51.030;7.024;2022-09-13T13:09:24;4.70;;;1.80;;
72127;SDS011;60000;51.030;7.024;2022-09-13T13:11:58;7.60;;;1.90;;
72127;SDS011;60000;51.030;7.024;2022-09-13T13:23:27;6.57;;;1.90;;
72127;SDS011;60000;51.030;7.024;2022-09-13T13:29:35;5.05;;;1.90;;
72127;SDS011;60000;51.030;7.024;2022-09-13T13:37:25;4.73;;;2.07;;
72127;SDS011;60000;51.030;7.024;2022-09-13T13:40:18;5.10;;;1.70;;
72127;SDS011;60000;51.030;7.024;2022-09-13T13:42:46;5.93;;;1.70;;
72127;SDS011;60000;51.030;7.024;2022-09-13T13:45:19;4.73;;;1.60;;
72127;SDS011;60000;51.030;7.024;2022-09-13T13:50:31;4.25;;;1.60;;
72127;SDS011;60000;51.030;7.024;2022-09-13T13:52:57;3.90;;;1.40;;
72127;SDS011;60000;51.030;7.024;2022-09-13T13:55:42;5.60;;;1.73;;
72127;SDS011;60000;51.030;7.024;2022-09-13T14:01:19;3.72;;;1.38;;
72127;SDS011;60000;51.030;7.024;2022-09-13T14:03:57;6.90;;;1.57;;
72127;SDS011;60000;51.030;7.024;2022-09-13T14:09:34;4.97;;;1.30;;
72127;SDS011;60000;51.030;7.024;2022-09-13T14:12:19;4.32;;;1.50;;
72127;SDS011;60000;51.030;7.024;2022-09-13T14:20:24;3.63;;;1.10;;
72127;SDS011;60000;51.030;7.024;2022-09-13T14:22:50;4.45;;;1.20;;
72127;SDS011;60000;51.030;7.024;2022-09-13T14:27:43;3.45;;;1.17;;
72127;SDS011;60000;51.030;7.024;2022-09-13T14:30:18;5.93;;;1.40;;
72127;SDS011;60000;51.030;7.024;2022-09-13T14:32:47;3.50;;;1.20;;
72127;SDS011;60000;51.030;7.024;2022-09-13T14:35:34;4.85;;;1.23;;
72127;SDS011;60000;51.030;7.024;2022-09-13T14:38:21;3.75;;;1.45;;
72127;SDS011;60000;51.030;7.024;2022-09-13T14:40:50;5.22;;;1.40;;
72127;SDS011;60000;51.030;7.024;2022-09-13T14:43:22;3.88;;;1.15;;
72127;SDS011;60000;51.030;7.024;2022-09-13T14:49:03;5.75;;;1.25;;
72127;SDS011;60000;51.030;7.024;2022-09-13T14:51:35;7.80;;;1.30;;
72127;SDS011;60000;51.030;7.024;2022-09-13T14:54:12;3.65;;;1.10;;
72127;SDS011;60000;51.030;7.024;2022-09-13T14:56:53;4.03;;;1.50;;
72127;SDS011;60000;51.030;7.024;2022-09-13T15:01:52;4.05;;;1.50;;
72127;SDS011;60000;51.030;7.024;2022-09-13T15:04:18;4.95;;;1.20;;
72127;SDS011;60000;51.030;7.024;2022-09-13T15:06:45;3.40;;;1.50;;
72127;SDS011;60000;51.030;7.024;2022-09-13T15:11:37;4.50;;;1.30;;
72127;SDS011;60000;51.030;7.024;2022-09-13T15:16:45;4.50;;;1.20;;
72127;SDS011;60000;51.030;7.024;2022-09-13T15:22:29;4.95;;;1.20;;
72127;SDS011;60000;51.030;7.024;2022-09-13T15:24:57;3.85;;;1.38;;
72127;SDS011;60000;51.030;7.024;2022-09-13T15:27:32;2.90;;;1.08;;
72127;SDS011;60000;51.030;7.024;2022-09-13T15:30:30;5.13;;;1.50;;
72127;SDS011;60000;51.030;7.024;2022-09-13T15:35:40;3.80;;;1.30;;
72127;SDS011;60000;51.030;7.024;2022-09-13T15:38:26;4.30;;;1.40;;
72127;SDS011;60000;51.030;7.024;2022-09-13T15:40:57;3.08;;;1.15;;
72127;SDS011;60000;51.030;7.024;2022-09-13T15:43:24;5.23;;;1.60;;
72127;SDS011;60000;51.030;7.024;2022-09-13T15:45:49;4.77;;;1.30;;
72127;SDS011;60000;51.030;7.024;2022-09-13T15:48:18;2.58;;;1.10;;
72127;SDS011;60000;51.030;7.024;2022-09-13T15:51:04;3.80;;;1.30;;
72127;SDS011;60000;51.030;7.024;2022-09-13T15:53:31;4.82;;;1.40;;
72127;SDS011;60000;51.030;7.024;2022-09-13T15:55:56;3.88;;;1.20;;
72127;SDS011;60000;51.030;7.024;2022-09-13T15:58:22;4.47;;;1.27;;
72127;SDS011;60000;51.030;7.024;2022-09-13T16:00:47;5.47;;;1.20;;
72127;SDS011;60000;51.030;7.024;2022-09-13T16:03:12;5.33;;;1.20;;
72127;SDS011;60000;51.030;7.024;2022-09-13T16:05:37;4.97;;;1.20;;
72127;SDS011;60000;51.030;7.024;2022-09-13T16:08:07;4.63;;;1.50;;
72127;SDS011;60000;51.030;7.024;2022-09-13T16:10:35;3.53;;;1.30;;
72127;SDS011;60000;51.030;7.024;2022-09-13T16:13:00;4.90;;;1.53;;
72127;SDS011;60000;51.030;7.024;2022-09-13T16:15:25;8.17;;;1.50;;
72127;SDS011;60000;51.030;7.024;2022-09-13T16:17:52;5.03;;;1.50;;
72127;SDS011;60000;51.030;7.024;2022-09-13T16:20:17;3.27;;;1.30;;
72127;SDS011;60000;51.030;7.024;2022-09-13T16:22:43;4.05;;;1.55;;
72127;SDS011;60000;51.030;7.024;2022-09-13T16:25:11;5.73;;;1.50;;
72127;SDS011;60000;51.030;7.024;2022-09-13T16:27:38;8.40;;;1.97;;
72127;SDS011;60000;51.030;7.024;2022-09-13T16:30:04;7.45;;;1.70;;
72127;SDS011;60000;51.030;7.024;2022-09-13T16:32:30;5.38;;;1.38;;
72127;SDS011;60000;51.030;7.024;2022-09-13T16:34:56;4.00;;;1.40;;
72127;SDS011;60000;51.030;7.024;2022-09-13T16:37:21;3.75;;;1.40;;
72127;SDS011;60000;51.030;7.024;2022-09-13T16:39:47;7.43;;;1.33;;
72127;SDS011;60000;51.030;7.024;2022-09-13T16:42:13;4.57;;;1.42;;
72127;SDS011;60000;51.030;7.024;2022-09-13T16:44:41;5.10;;;1.73;;
72127;SDS011;60000;51.030;7.024;2022-09-13T16:47:07;3.78;;;1.40;;
72127;SDS011;60000;51.030;7.024;2022-09-13T16:49:33;4.28;;;1.40;;
72127;SDS011;60000;51.030;7.024;2022-09-13T16:51:59;3.93;;;1.50;;
72127;SDS011;60000;51.030;7.024;2022-09-13T16:54:25;5.00;;;1.80;;
72127;SDS011;60000;51.030;7.024;2022-09-13T16:56:51;10.32;;;1.55;;
72127;SDS011;60000;51.030;7.024;2022-09-13T16:59:17;5.10;;;1.60;;
72127;SDS011;60000;51.030;7.024;2022-09-13T17:01:42;6.07;;;1.75;;
72127;SDS011;60000;51.030;7.024;2022-09-13T17:04:08;5.83;;;1.50;;
72127;SDS011;60000;51.030;7.024;2022-09-13T17:06:35;4.47;;;1.80;;
72127;SDS011;60000;51.030;7.024;2022-09-13T17:09:01;11.10;;;1.83;;
72127;SDS011;60000;51.030;7.024;2022-09-13T17:11:30;4.70;;;2.00;;
72127;SDS011;60000;51.030;7.024;2022-09-13T17:13:58;4.03;;;1.85;;
72127;SDS011;60000;51.030;7.024;2022-09-13T17:16:28;6.82;;;1.70;;
72127;SDS011;60000;51.030;7.024;2022-09-13T17:18:59;5.57;;;1.65;;
72127;SDS011;60000;51.030;7.024;2022-09-13T17:21:26;5.13;;;1.80;;
72127;SDS011;60000;51.030;7.024;2022-09-13T17:23:53;7.00;;;1.70;;
72127;SDS011;60000;51.030;7.024;2022-09-13T17:26:19;4.28;;;1.70;;
72127;SDS011;60000;51.030;7.024;2022-09-13T17:28:44;5.78;;;1.98;;
72127;SDS011;60000;51.030;7.024;2022-09-13T17:31:10;5.83;;;2.13;;
72127;SDS011;60000;51.030;7.024;2022-09-13T17:33:35;6.23;;;1.90;;
72127;SDS011;60000;51.030;7.024;2022-09-13T17:36:02;4.60;;;1.70;;
72127;SDS011;60000;51.030;7.024;2022-09-13T17:38:29;5.23;;;2.10;;
72127;SDS011;60000;51.030;7.024;2022-09-13T17:41:02;6.45;;;2.40;;
72127;SDS011;60000;51.030;7.024;2022-09-13T17:43:27;6.70;;;2.37;;
72127;SDS011;60000;51.030;7.024;2022-09-13T17:45:53;6.30;;;2.30;;
72127;SDS011;60000;51.030;7.024;2022-09-13T17:48:18;8.47;;;2.00;;
72127;SDS011;60000;51.030;7.024;2022-09-13T17:50:44;6.27;;;2.07;;
72127;SDS011;60000;51.030;7.024;2022-09-13T17:53:09;5.47;;;2.43;;
72127;SDS011;60000;51.030;7.024;2022-09-13T17:55:36;7.35;;;2.30;;
72127;SDS011;60000;51.030;7.024;2022-09-13T17:58:01;8.07;;;2.30;;
72127;SDS011;60000;51.030;7.024;2022-09-13T18:00:26;8.23;;;2.30;;
72127;SDS011;60000;51.030;7.024;2022-09-13T18:02:52;6.35;;;2.28;;
72127;SDS011;60000;51.030;7.024;2022-09-13T18:05:17;6.80;;;2.17;;
72127;SDS011;60000;51.030;7.024;2022-09-13T18:07:43;9.23;;;2.70;;
72127;SDS011;60000;51.030;7.024;2022-09-13T18:10:08;6.07;;;2.47;;
72127;SDS011;60000;51.030;7.024;2022-09-13T18:12:34;6.45;;;2.50;;